createdAt,value
2023-04-25T00:01:10.012Z,97551.44
2023-04-25T00:03:41.756Z,97561.16
2023-04-25T00:06:09.547Z,97555.25
2023-04-25T00:08:37.202Z,97565.84
2023-04-25T00:11:04.395Z,97563.16
2023-04-25T00:13:31.839Z,97557.47
2023-04-25T00:15:59.296Z,97557.25
2023-04-25T00:18:29.839Z,97556.38
2023-04-25T00:20:57.465Z,97558.06
2023-04-25T00:23:25.055Z,97564.47
2023-04-25T00:25:52.381Z,97563.88
2023-04-25T00:28:20.028Z,97553.47
2023-04-25T00:30:46.948Z,97562.56
2023-04-25T00:33:14.164Z,97567.44
2023-04-25T00:35:41.655Z,97560.84
2023-04-25T00:38:08.900Z,97567.34
2023-04-25T00:40:36.493Z,97570.41
2023-04-25T00:43:03.827Z,97570.81
2023-04-25T00:45:31.205Z,97572.00
2023-04-25T00:47:58.709Z,97565.13
2023-04-25T00:50:26.195Z,97567.50
2023-04-25T00:52:53.562Z,97558.50
2023-04-25T00:55:21.077Z,97570.38
2023-04-25T00:57:48.674Z,97566.22
2023-04-25T01:00:16.018Z,97566.03
2023-04-25T01:02:43.814Z,97565.56
2023-04-25T01:05:11.745Z,97562.66
2023-04-25T01:07:39.345Z,97561.91
2023-04-25T01:10:07.375Z,97560.22
2023-04-25T01:12:35.023Z,97562.88
2023-04-25T01:15:02.139Z,97562.94
2023-04-25T01:17:30.370Z,97565.09
2023-04-25T01:19:57.701Z,97560.03
2023-04-25T01:22:25.355Z,97566.94
2023-04-25T01:24:52.239Z,97578.66
2023-04-25T01:27:19.566Z,97576.00
2023-04-25T01:29:47.008Z,97570.41
2023-04-25T01:32:14.948Z,97582.97
2023-04-25T01:34:42.183Z,97574.09
2023-04-25T01:37:09.313Z,97576.91
2023-04-25T01:39:36.362Z,97576.69
2023-04-25T01:42:03.922Z,97565.38
2023-04-25T01:44:30.852Z,97573.13
2023-04-25T01:46:58.052Z,97575.03
2023-04-25T01:49:25.239Z,97562.75
2023-04-25T01:51:52.588Z,97564.72
2023-04-25T01:54:19.842Z,97573.13
2023-04-25T01:56:52.301Z,97567.34
2023-04-25T01:59:21.104Z,97568.72
2023-04-25T02:01:48.495Z,97575.34
2023-04-25T02:04:15.839Z,97576.31
2023-04-25T02:06:43.458Z,97573.94
2023-04-25T02:09:10.661Z,97581.00
2023-04-25T02:11:37.908Z,97591.09
2023-04-25T02:14:04.796Z,97594.66
2023-04-25T02:16:32.241Z,97587.88
2023-04-25T02:19:00.211Z,97591.09
2023-04-25T02:21:27.701Z,97597.41
2023-04-25T02:23:55.021Z,97605.97
2023-04-25T02:26:22.564Z,97603.50
2023-04-25T02:28:49.588Z,97606.13
2023-04-25T02:31:17.108Z,97609.56
2023-04-25T02:33:44.737Z,97611.59
2023-04-25T02:36:12.123Z,97613.16
2023-04-25T02:38:39.417Z,97611.59
2023-04-25T02:41:06.695Z,97610.88
2023-04-25T02:43:33.614Z,97613.63
2023-04-25T02:46:01.083Z,97617.34
2023-04-25T02:48:28.310Z,97624.13
2023-04-25T02:50:55.571Z,97621.47
2023-04-25T02:53:22.572Z,97618.56
2023-04-25T02:55:50.283Z,97629.03
2023-04-25T02:58:17.240Z,97624.75
2023-04-25T03:00:44.755Z,97622.13
2023-04-25T03:03:12.085Z,97625.19
2023-04-25T03:05:39.528Z,97626.16
2023-04-25T03:08:06.494Z,97631.22
2023-04-25T03:10:34.252Z,97621.00
2023-04-25T03:13:01.243Z,97632.25
2023-04-25T03:15:28.498Z,97621.28
2023-04-25T03:17:55.500Z,97619.31
2023-04-25T03:20:22.987Z,97615.94
2023-04-25T03:22:50.169Z,97608.78
2023-04-25T03:25:17.676Z,97606.03
2023-04-25T03:27:44.640Z,97604.56
2023-04-25T03:30:12.232Z,97614.25
2023-04-25T03:32:39.185Z,97615.94
2023-04-25T03:35:06.674Z,97617.34
2023-04-25T03:37:33.705Z,97615.69
2023-04-25T03:40:01.208Z,97615.94
2023-04-25T03:42:28.110Z,97621.63
2023-04-25T03:44:55.850Z,97619.13
2023-04-25T03:47:22.935Z,97626.28
2023-04-25T03:49:52.858Z,97619.41
2023-04-25T03:52:19.966Z,97629.03
2023-04-25T03:54:47.445Z,97632.25
2023-04-25T03:57:14.343Z,97633.41
2023-04-25T03:59:41.739Z,97634.59
2023-04-25T04:02:08.977Z,97632.25
2023-04-25T04:04:36.995Z,97637.47
2023-04-25T04:07:04.198Z,97637.53
2023-04-25T04:09:32.107Z,97645.56
2023-04-25T04:11:59.079Z,97649.97
2023-04-25T04:14:26.490Z,97643.91
2023-04-25T04:16:53.929Z,97647.19
2023-04-25T04:19:21.517Z,97651.63
2023-04-25T04:21:48.637Z,97658.91
2023-04-25T04:24:17.944Z,97653.41
2023-04-25T04:26:48.157Z,97655.94
2023-04-25T04:29:22.229Z,97662.69
2023-04-25T04:31:54.121Z,97664.72
2023-04-25T04:34:21.682Z,97662.00
2023-04-25T04:36:48.947Z,97656.84
2023-04-25T04:39:16.606Z,97652.72
2023-04-25T04:41:44.235Z,97654.66
2023-04-25T04:44:11.889Z,97649.13
2023-04-25T04:46:43.105Z,97653.31
2023-04-25T04:49:11.696Z,97649.97
2023-04-25T04:51:39.195Z,97659.00
2023-04-25T04:54:06.598Z,97660.78
2023-04-25T04:56:33.641Z,97660.47
2023-04-25T04:59:01.303Z,97655.03
2023-04-25T05:01:28.425Z,97653.78
2023-04-25T05:04:01.636Z,97644.31
2023-04-25T05:06:30.344Z,97644.91
2023-04-25T05:08:57.926Z,97640.78
2023-04-25T05:11:26.793Z,97641.59
2023-04-25T05:13:54.737Z,97638.84
2023-04-25T05:16:22.041Z,97635.53
2023-04-25T05:18:49.312Z,97636.06
2023-04-25T05:21:16.267Z,97641.16
2023-04-25T05:23:43.689Z,97637.66
2023-04-25T05:26:15.111Z,97637.66
2023-04-25T05:28:43.082Z,97630.69
2023-04-25T05:31:13.965Z,97630.19
2023-04-25T05:33:41.557Z,97625.56
2023-04-25T05:36:09.379Z,97631.94
2023-04-25T05:38:36.523Z,97624.03
2023-04-25T05:41:03.712Z,97627.31
2023-04-25T05:43:31.216Z,97624.66
2023-04-25T05:45:58.264Z,97631.53
2023-04-25T05:48:25.970Z,97631.91
2023-04-25T05:50:52.977Z,97635.03
2023-04-25T05:53:20.976Z,97632.22
2023-04-25T05:55:48.043Z,97642.41
2023-04-25T05:58:15.177Z,97630.72
2023-04-25T06:00:42.871Z,97632.34
2023-04-25T06:03:16.474Z,97633.06
2023-04-25T06:05:45.291Z,97629.31
2023-04-25T06:08:12.575Z,97631.28
2023-04-25T06:10:39.511Z,97625.91
2023-04-25T06:13:06.770Z,97631.72
2023-04-25T06:15:33.734Z,97637.72
2023-04-25T06:18:01.310Z,97635.09
2023-04-25T06:20:28.601Z,97643.53
2023-04-25T06:22:56.098Z,97643.56
2023-04-25T06:25:23.121Z,97643.81
2023-04-25T06:27:50.405Z,97647.41
2023-04-25T06:30:19.520Z,97645.28
2023-04-25T06:32:46.977Z,97652.19
2023-04-25T06:35:14.232Z,97647.53
2023-04-25T06:37:41.694Z,97641.34
2023-04-25T06:40:09.297Z,97658.56
2023-04-25T06:42:37.125Z,97655.09
2023-04-25T06:45:05.692Z,97647.84
2023-04-25T06:47:33.195Z,97657.53
2023-04-25T06:50:00.296Z,97650.97
2023-04-25T06:52:27.540Z,97651.50
2023-04-25T06:54:54.413Z,97647.84
2023-04-25T06:57:22.190Z,97651.09
2023-04-25T06:59:49.142Z,97643.38
2023-04-25T07:02:16.819Z,97639.97
2023-04-25T07:04:44.173Z,97649.78
2023-04-25T07:07:11.452Z,97633.09
2023-04-25T07:09:38.369Z,97640.75
2023-04-25T07:12:06.085Z,97640.09
2023-04-25T07:14:33.094Z,97642.75
2023-04-25T07:17:00.670Z,97647.50
2023-04-25T07:19:30.844Z,97643.09
2023-04-25T07:21:58.166Z,97639.19
2023-04-25T07:24:25.230Z,97640.84
2023-04-25T07:26:52.909Z,97644.66
2023-04-25T07:29:19.848Z,97648.56
2023-04-25T07:31:47.402Z,97645.06
2023-04-25T07:34:14.740Z,97651.63
2023-04-25T07:36:42.168Z,97638.78
2023-04-25T07:39:10.318Z,97638.75
2023-04-25T07:41:37.816Z,97641.81
2023-04-25T07:44:04.955Z,97640.75
2023-04-25T07:46:32.371Z,97643.53
2023-04-25T07:48:59.520Z,97642.56
2023-04-25T07:51:27.161Z,97632.44
2023-04-25T07:53:54.446Z,97636.44
2023-04-25T07:56:23.062Z,97631.47
2023-04-25T07:58:50.268Z,97646.38
2023-04-25T08:01:17.890Z,97635.13
2023-04-25T08:03:45.299Z,97632.75
2023-04-25T08:06:13.277Z,97635.00
2023-04-25T08:08:41.005Z,97641.72
2023-04-25T08:11:08.270Z,97634.28
2023-04-25T08:13:35.410Z,97632.28
2023-04-25T08:16:02.837Z,97626.19
2023-04-25T08:18:29.839Z,97638.53
2023-04-25T08:20:57.182Z,97633.44
2023-04-25T08:23:24.234Z,97636.75
2023-04-25T08:25:51.498Z,97625.38
2023-04-25T08:28:18.465Z,97627.06
2023-04-25T08:30:45.690Z,97625.81
2023-04-25T08:33:13.048Z,97622.06
2023-04-25T08:35:40.410Z,97630.34
2023-04-25T08:38:08.092Z,97622.72
2023-04-25T08:40:39.332Z,97633.59
2023-04-25T08:43:12.502Z,97628.16
2023-04-25T08:45:44.471Z,97631.03
2023-04-25T08:48:17.272Z,97627.31
2023-04-25T08:50:51.721Z,97627.28
2023-04-25T08:53:23.854Z,97632.25
2023-04-25T08:55:51.552Z,97631.53
2023-04-25T08:58:19.558Z,97632.31
2023-04-25T09:00:48.398Z,97632.38
2023-04-25T09:03:16.589Z,97627.06
2023-04-25T09:05:47.291Z,97627.94
2023-04-25T09:08:14.467Z,97629.53
2023-04-25T09:10:41.886Z,97627.13
2023-04-25T09:13:18.601Z,97632.59
2023-04-25T09:15:57.028Z,97629.25
2023-04-25T09:18:32.266Z,97628.38
2023-04-25T09:21:13.076Z,97627.78
2023-04-25T09:23:46.620Z,97627.88
2023-04-25T09:26:18.664Z,97629.53
2023-04-25T09:28:47.059Z,97633.47
2023-04-25T09:31:25.996Z,97627.84
2023-04-25T09:34:01.757Z,97631.81
2023-04-25T09:36:31.257Z,97633.56
2023-04-25T09:39:00.965Z,97637.91
2023-04-25T09:41:28.476Z,97638.63
2023-04-25T09:44:00.203Z,97632.63
2023-04-25T09:46:34.945Z,97626.06
2023-04-25T09:49:08.218Z,97628.00
2023-04-25T09:51:35.588Z,97625.25
2023-04-25T09:54:02.658Z,97627.16
2023-04-25T09:56:32.478Z,97618.91
2023-04-25T09:58:59.643Z,97626.16
2023-04-25T10:01:27.559Z,97626.94
2023-04-25T10:03:57.976Z,97622.28
2023-04-25T10:06:26.713Z,97626.53
2023-04-25T10:08:55.818Z,97617.75
2023-04-25T10:11:24.696Z,97617.94
2023-04-25T10:13:52.232Z,97619.97
2023-04-25T10:16:20.251Z,97622.28
2023-04-25T10:18:48.522Z,97625.56
2023-04-25T10:21:17.624Z,97623.94
2023-04-25T10:23:45.132Z,97619.13
2023-04-25T10:26:15.710Z,97612.75
2023-04-25T10:29:02.766Z,97610.31
2023-04-25T10:31:33.647Z,97611.72
2023-04-25T10:34:02.150Z,97609.34
2023-04-25T10:36:32.809Z,97602.63
2023-04-25T10:39:08.163Z,97599.75
2023-04-25T10:41:49.354Z,97601.84
2023-04-25T10:44:16.879Z,97603.09
2023-04-25T10:46:45.785Z,97599.97
2023-04-25T10:49:39.401Z,97600.94
2023-04-25T10:52:26.169Z,97599.00
2023-04-25T10:54:58.555Z,97599.66
2023-04-25T10:57:40.795Z,97604.38
2023-04-25T11:00:12.217Z,97602.91
2023-04-25T11:02:48.918Z,97603.56
2023-04-25T11:05:26.306Z,97604.16
2023-04-25T11:08:07.177Z,97604.09
2023-04-25T11:10:36.809Z,97601.06
2023-04-25T11:13:04.393Z,97602.06
2023-04-25T11:15:31.534Z,97603.41
2023-04-25T11:18:27.293Z,97606.22
2023-04-25T11:20:54.583Z,97612.50
2023-04-25T11:23:21.851Z,97607.06
2023-04-25T11:25:49.106Z,97606.44
2023-04-25T11:28:23.626Z,97614.66
2023-04-25T11:30:52.176Z,97604.53
2023-04-25T11:33:24.732Z,97612.66
2023-04-25T11:35:55.108Z,97613.63
2023-04-25T11:38:24.786Z,97614.38
2023-04-25T11:40:53.681Z,97615.00
2023-04-25T11:43:27.140Z,97617.78
2023-04-25T11:45:54.170Z,97618.41
2023-04-25T11:48:24.272Z,97617.78
2023-04-25T11:50:55.208Z,97618.78
2023-04-25T11:53:22.983Z,97632.22
2023-04-25T11:55:51.322Z,97628.91
2023-04-25T11:58:20.696Z,97623.13
2023-04-25T12:00:50.447Z,97621.56
2023-04-25T12:03:19.415Z,97623.06
2023-04-25T12:05:47.676Z,97616.88
2023-04-25T12:08:16.535Z,97614.78
2023-04-25T12:10:46.108Z,97616.97
2023-04-25T12:13:24.628Z,97613.59
2023-04-25T12:15:51.887Z,97616.03
2023-04-25T12:18:25.100Z,97617.38
2023-04-25T12:20:54.186Z,97620.94
2023-04-25T12:23:31.947Z,97626.13
2023-04-25T12:25:59.114Z,97627.31
2023-04-25T12:28:30.224Z,97634.44
2023-04-25T12:31:05.719Z,97628.34
2023-04-25T12:33:40.807Z,97633.28
2023-04-25T12:36:12.841Z,97619.44
2023-04-25T12:38:42.410Z,97624.97
2023-04-25T12:41:10.243Z,97623.41
2023-04-25T12:43:37.558Z,97625.13
2023-04-25T12:46:05.795Z,97625.44
2023-04-25T12:48:33.179Z,97627.22
2023-04-25T12:51:00.489Z,97625.88
2023-04-25T12:53:34.465Z,97623.31
2023-04-25T12:56:03.262Z,97625.88
2023-04-25T12:58:30.693Z,97619.44
2023-04-25T13:00:57.734Z,97627.09
2023-04-25T13:03:25.908Z,97618.81
2023-04-25T13:05:53.859Z,97617.59
2023-04-25T13:08:21.176Z,97617.63
2023-04-25T13:10:51.309Z,97619.44
2023-04-25T13:13:18.825Z,97618.91
2023-04-25T13:15:45.901Z,97610.63
2023-04-25T13:18:13.651Z,97612.00
2023-04-25T13:20:40.807Z,97611.84
2023-04-25T13:23:08.187Z,97617.31
2023-04-25T13:25:35.640Z,97612.84
2023-04-25T13:28:03.404Z,97611.22
2023-04-25T13:30:30.533Z,97610.91
2023-04-25T13:32:58.504Z,97610.00
2023-04-25T13:35:26.575Z,97611.75
2023-04-25T13:37:53.918Z,97611.63
2023-04-25T13:40:22.885Z,97609.88
2023-04-25T13:42:52.257Z,97614.03
2023-04-25T13:45:19.513Z,97608.72
2023-04-25T13:47:49.996Z,97604.88
2023-04-25T13:50:17.394Z,97618.28
2023-04-25T13:52:44.918Z,97617.31
2023-04-25T13:55:12.345Z,97623.94
2023-04-25T13:57:41.237Z,97622.09
2023-04-25T14:00:10.524Z,97621.31
2023-04-25T14:02:38.117Z,97629.53
2023-04-25T14:05:06.423Z,97624.09
2023-04-25T14:07:36.148Z,97622.88
2023-04-25T14:10:05.426Z,97624.88
2023-04-25T14:12:34.111Z,97626.34
2023-04-25T14:15:01.309Z,97609.38
2023-04-25T14:17:29.158Z,97611.28
2023-04-25T14:19:56.312Z,97611.16
2023-04-25T14:22:23.701Z,97615.28
2023-04-25T14:24:51.201Z,97610.38
2023-04-25T14:27:18.511Z,97616.25
2023-04-25T14:29:45.588Z,97618.81
2023-04-25T14:32:13.272Z,97621.47
2023-04-25T14:34:40.631Z,97613.09
2023-04-25T14:37:07.910Z,97610.19
2023-04-25T14:39:37.922Z,97619.75
2023-04-25T14:42:05.282Z,97615.94
2023-04-25T14:44:32.444Z,97614.09
2023-04-25T14:47:00.378Z,97614.66
2023-04-25T14:49:27.592Z,97622.78
2023-04-25T14:51:54.926Z,97625.53
2023-04-25T14:54:22.053Z,97610.03
2023-04-25T14:56:49.416Z,97619.28
2023-04-25T14:59:16.627Z,97612.00
2023-04-25T15:01:44.032Z,97608.56
2023-04-25T15:04:13.710Z,97613.34
2023-04-25T15:06:41.232Z,97614.84
2023-04-25T15:09:09.568Z,97625.44
2023-04-25T15:11:37.344Z,97625.44
2023-04-25T15:14:04.414Z,97623.66
2023-04-25T15:16:32.637Z,97629.19
2023-04-25T15:18:59.961Z,97623.31
2023-04-25T15:21:27.742Z,97621.81
2023-04-25T15:23:54.798Z,97619.41
2023-04-25T15:26:22.644Z,97616.91
2023-04-25T15:28:49.864Z,97615.63
2023-04-25T15:31:17.540Z,97619.63
2023-04-25T15:33:45.074Z,97615.16
2023-04-25T15:36:12.688Z,97614.16
2023-04-25T15:38:40.128Z,97621.94
2023-04-25T15:41:07.467Z,97616.34
2023-04-25T15:43:38.486Z,97623.56
2023-04-25T15:46:07.324Z,97620.78
2023-04-25T15:48:34.520Z,97622.94
2023-04-25T15:51:03.169Z,97617.91
2023-04-25T15:53:31.106Z,97635.16
2023-04-25T15:55:58.532Z,97625.91
2023-04-25T15:58:25.727Z,97626.63
2023-04-25T16:00:53.859Z,97617.13
2023-04-25T16:03:21.079Z,97624.19
2023-04-25T16:05:48.409Z,97623.41
2023-04-25T16:08:15.853Z,97620.84
2023-04-25T16:10:43.209Z,97617.69
2023-04-25T16:13:10.420Z,97618.56
2023-04-25T16:15:38.352Z,97618.56
2023-04-25T16:18:05.482Z,97617.59
2023-04-25T16:20:33.151Z,97622.06
2023-04-25T16:23:00.756Z,97626.44
2023-04-25T16:25:28.594Z,97628.13
2023-04-25T16:27:55.626Z,97631.31
2023-04-25T16:30:23.389Z,97629.19
2023-04-25T16:32:50.474Z,97632.41
2023-04-25T16:35:18.036Z,97627.13
2023-04-25T16:37:45.682Z,97631.06
2023-04-25T16:40:13.321Z,97628.03
2023-04-25T16:42:40.495Z,97634.38
2023-04-25T16:45:08.578Z,97633.31
2023-04-25T16:47:36.607Z,97643.41
2023-04-25T16:50:04.580Z,97638.75
2023-04-25T16:52:34.600Z,97647.47
2023-04-25T16:55:02.086Z,97646.31
2023-04-25T16:57:29.061Z,97650.50
2023-04-25T16:59:56.896Z,97651.63
2023-04-25T17:02:24.176Z,97651.38
2023-04-25T17:04:54.878Z,97649.22
2023-04-25T17:07:24.765Z,97658.06
2023-04-25T17:09:52.269Z,97652.00
2023-04-25T17:12:22.332Z,97660.03
2023-04-25T17:14:50.984Z,97666.56
2023-04-25T17:17:19.047Z,97665.75
2023-04-25T17:19:46.755Z,97665.47
2023-04-25T17:22:14.623Z,97664.38
2023-04-25T17:24:42.356Z,97667.69
2023-04-25T17:27:10.025Z,97667.25
2023-04-25T17:29:37.694Z,97667.78
2023-04-25T17:32:04.840Z,97669.03
2023-04-25T17:34:32.389Z,97680.28
2023-04-25T17:36:59.513Z,97681.19
2023-04-25T17:39:26.913Z,97681.84
2023-04-25T17:41:54.110Z,97685.72
2023-04-25T17:44:21.545Z,97683.31
2023-04-25T17:46:48.631Z,97684.75
2023-04-25T17:49:16.186Z,97695.50
2023-04-25T17:51:45.789Z,97697.16
2023-04-25T17:54:13.228Z,97705.44
2023-04-25T17:56:42.178Z,97701.66
2023-04-25T17:59:10.118Z,97707.47
2023-04-25T18:01:37.149Z,97706.06
2023-04-25T18:04:04.654Z,97711.44
2023-04-25T18:06:33.167Z,97710.19
2023-04-25T18:09:02.275Z,97710.09
2023-04-25T18:11:30.264Z,97727.78
2023-04-25T18:13:57.858Z,97732.09
2023-04-25T18:16:29.502Z,97738.84
2023-04-25T18:19:05.570Z,97736.34
2023-04-25T18:21:33.052Z,97728.34
2023-04-25T18:24:01.587Z,97741.06
2023-04-25T18:26:31.963Z,97750.50
2023-04-25T18:28:59.402Z,97754.88
2023-04-25T18:31:26.831Z,97753.38
2023-04-25T18:33:58.008Z,97767.03
2023-04-25T18:36:25.255Z,97774.81
2023-04-25T18:38:56.534Z,97770.94
2023-04-25T18:41:51.127Z,97775.06
2023-04-25T18:44:13.037Z,97776.88
2023-04-25T18:46:43.979Z,97789.59
2023-04-25T18:49:11.338Z,97784.34
2023-04-25T18:51:41.723Z,97793.06
2023-04-25T18:54:11.662Z,97794.16
2023-04-25T18:56:38.620Z,97800.53
2023-04-25T18:59:05.906Z,97809.44
2023-04-25T19:01:33.866Z,97799.91
2023-04-25T19:04:05.941Z,97810.41
2023-04-25T19:06:34.120Z,97816.50
2023-04-25T19:09:02.658Z,97815.66
2023-04-25T19:11:29.958Z,97818.16
2023-04-25T19:13:57.268Z,97820.63
2023-04-25T19:16:26.590Z,97819.22
2023-04-25T19:18:55.535Z,97828.19
2023-04-25T19:21:22.892Z,97830.03
2023-04-25T19:23:50.674Z,97826.97
2023-04-25T19:26:18.754Z,97826.69
2023-04-25T19:28:46.085Z,97836.34
2023-04-25T19:31:13.401Z,97835.81
2023-04-25T19:33:41.347Z,97834.97
2023-04-25T19:36:08.775Z,97842.44
2023-04-25T19:38:36.386Z,97842.69
2023-04-25T19:41:03.390Z,97834.63
2023-04-25T19:43:31.919Z,97838.53
2023-04-25T19:45:59.470Z,97835.84
2023-04-25T19:48:26.775Z,97837.47
2023-04-25T19:50:53.753Z,97847.69
2023-04-25T19:53:21.221Z,97835.81
2023-04-25T19:55:48.613Z,97838.81
2023-04-25T19:58:16.689Z,97842.41
2023-04-25T20:00:43.837Z,97850.53
2023-04-25T20:03:12.336Z,97848.97
2023-04-25T20:05:39.434Z,97850.31
2023-04-25T20:08:06.852Z,97851.66
2023-04-25T20:10:33.902Z,97855.06
2023-04-25T20:13:01.546Z,97856.94
2023-04-25T20:15:29.138Z,97852.91
2023-04-25T20:17:56.433Z,97853.41
2023-04-25T20:20:23.780Z,97858.03
2023-04-25T20:22:51.854Z,97866.22
2023-04-25T20:25:19.363Z,97873.50
2023-04-25T20:27:46.630Z,97877.19
2023-04-25T20:30:15.758Z,97874.13
2023-04-25T20:32:43.308Z,97873.91
2023-04-25T20:35:10.456Z,97882.94
2023-04-25T20:37:37.982Z,97878.28
2023-04-25T20:40:08.142Z,97884.88
2023-04-25T20:42:36.518Z,97888.50
2023-04-25T20:45:07.962Z,97898.16
2023-04-25T20:47:35.594Z,97885.25
2023-04-25T20:50:04.182Z,97891.94
2023-04-25T20:52:32.807Z,97897.94
2023-04-25T20:55:00.046Z,97903.63
2023-04-25T20:57:27.552Z,97903.59
2023-04-25T20:59:54.698Z,97903.88
2023-04-25T21:02:22.127Z,97900.34
2023-04-25T21:04:49.226Z,97903.75
2023-04-25T21:07:17.193Z,97915.69
2023-04-25T21:09:48.054Z,97908.28
2023-04-25T21:12:15.423Z,97914.03
2023-04-25T21:14:42.698Z,97916.31
2023-04-25T21:17:10.108Z,97914.28
2023-04-25T21:19:37.058Z,97914.03
2023-04-25T21:22:04.716Z,97912.09
2023-04-25T21:24:33.273Z,97911.66
2023-04-25T21:27:01.308Z,97916.53
2023-04-25T21:29:28.429Z,97911.47
2023-04-25T21:31:56.921Z,97916.66
2023-04-25T21:34:24.220Z,97920.53
2023-04-25T21:36:51.662Z,97923.59
2023-04-25T21:39:19.187Z,97932.97
2023-04-25T21:41:46.645Z,97919.97
2023-04-25T21:44:14.692Z,97926.25
2023-04-25T21:46:42.001Z,97928.38
2023-04-25T21:49:08.975Z,97932.91
2023-04-25T21:51:36.503Z,97930.91
2023-04-25T21:54:05.580Z,97941.81
2023-04-25T21:56:33.233Z,97949.72
2023-04-25T21:59:00.361Z,97937.72
2023-04-25T22:01:28.630Z,97949.50
2023-04-25T22:03:55.774Z,97949.00
2023-04-25T22:06:23.346Z,97953.72
2023-04-25T22:08:50.652Z,97953.66
2023-04-25T22:11:18.058Z,97958.88
2023-04-25T22:13:45.687Z,97975.34
2023-04-25T22:16:13.002Z,97966.88
2023-04-25T22:18:40.737Z,97964.34
2023-04-25T22:21:08.980Z,97978.78
2023-04-25T22:23:37.340Z,97976.19
2023-04-25T22:26:05.263Z,97986.91
2023-04-25T22:28:33.280Z,97978.75
2023-04-25T22:31:00.545Z,97977.91
2023-04-25T22:33:28.062Z,97985.16
2023-04-25T22:35:55.658Z,97982.66
2023-04-25T22:38:22.506Z,97991.81
2023-04-25T22:40:50.068Z,97992.91
2023-04-25T22:43:17.224Z,97990.84
2023-04-25T22:45:44.642Z,97993.97
2023-04-25T22:48:11.673Z,97997.88
2023-04-25T22:50:40.977Z,97996.94
2023-04-25T22:53:10.318Z,98001.81
2023-04-25T22:55:37.622Z,98005.13
2023-04-25T22:58:05.303Z,98002.47
2023-04-25T23:00:34.524Z,97998.69
2023-04-25T23:03:04.059Z,98009.16
2023-04-25T23:05:33.128Z,98011.06
2023-04-25T23:08:00.158Z,98011.28
2023-04-25T23:10:28.462Z,98017.25
2023-04-25T23:12:58.177Z,98014.63
2023-04-25T23:15:31.111Z,98009.88
2023-04-25T23:17:58.888Z,98015.78
2023-04-25T23:20:26.749Z,98020.28
2023-04-25T23:22:53.686Z,98014.84
2023-04-25T23:25:21.613Z,98010.56
2023-04-25T23:27:48.690Z,98015.59
2023-04-25T23:30:16.302Z,98018.69
2023-04-25T23:32:43.264Z,98023.44
2023-04-25T23:35:10.786Z,98026.19
2023-04-25T23:37:38.648Z,98025.94
2023-04-25T23:40:12.885Z,98037.19
2023-04-25T23:42:41.324Z,98041.81
2023-04-25T23:45:09.183Z,98033.84
2023-04-25T23:47:36.766Z,98041.66
2023-04-25T23:50:04.787Z,98051.22
2023-04-25T23:52:31.783Z,98049.38
2023-04-25T23:54:59.084Z,98054.28
2023-04-25T23:57:26.266Z,98051.16
2023-04-25T23:59:53.578Z,98050.44
